createdAt,value
2022-09-12T00:01:04.550Z,71.30
2022-09-12T00:03:31.776Z,72.40
2022-09-12T00:05:58.858Z,71.13
2022-09-12T00:08:26.254Z,70.82
2022-09-12T00:10:53.325Z,73.24
2022-09-12T00:13:20.433Z,75.09
2022-09-12T00:15:47.530Z,75.49
2022-09-12T00:18:16.884Z,73.25
2022-09-12T00:20:45.568Z,73.25
2022-09-12T00:23:14.004Z,72.90
2022-09-12T00:25:42.771Z,72.53
2022-09-12T00:28:10.589Z,72.62
2022-09-12T00:30:45.748Z,72.25
2022-09-12T00:33:13.881Z,72.32
2022-09-12T00:35:42.751Z,73.51
2022-09-12T00:38:10.238Z,76.07
2022-09-12T00:40:37.385Z,76.97
2022-09-12T00:43:05.203Z,76.02
2022-09-12T00:45:32.323Z,75.31
2022-09-12T00:48:04.404Z,75.05
2022-09-12T00:50:33.087Z,74.94
2022-09-12T00:53:04.861Z,75.23
2022-09-12T00:55:45.893Z,74.61
2022-09-12T00:58:25.813Z,74.08
2022-09-12T01:00:52.987Z,74.51
2022-09-12T01:03:23.147Z,75.75
2022-09-12T01:06:11.795Z,75.75
2022-09-12T01:08:41.003Z,76.47
2022-09-12T01:11:11.339Z,76.75
2022-09-12T01:13:38.572Z,76.96
2022-09-12T01:16:07.371Z,76.75
2022-09-12T01:19:12.795Z,76.47
2022-09-12T01:21:59.172Z,77.00
2022-09-12T01:24:35.311Z,77.19
2022-09-12T01:27:20.637Z,76.03
2022-09-12T01:30:44.371Z,76.68
2022-09-12T01:33:27.192Z,78.01
2022-09-12T01:36:25.944Z,77.45
2022-09-12T01:39:01.873Z,76.59
2022-09-12T01:41:50.226Z,76.44
2022-09-12T01:44:34.360Z,75.93
2022-09-12T01:47:10.235Z,76.87
2022-09-12T01:49:58.044Z,77.34
2022-09-12T01:52:28.267Z,77.85
2022-09-12T01:55:10.291Z,77.81
2022-09-12T01:57:48.959Z,76.91
2022-09-12T02:00:16.982Z,76.90
2022-09-12T02:02:50.705Z,77.22
2022-09-12T02:05:25.328Z,77.75
2022-09-12T02:08:01.694Z,78.30
2022-09-12T02:10:34.330Z,78.09
2022-09-12T02:13:03.797Z,78.25
2022-09-12T02:15:38.623Z,77.88
2022-09-12T02:18:06.789Z,78.91
2022-09-12T02:20:54.882Z,80.18
2022-09-12T02:23:28.903Z,78.24
2022-09-12T02:26:02.192Z,77.16
2022-09-12T02:28:36.005Z,77.15
2022-09-12T02:31:06.015Z,78.37
2022-09-12T02:33:53.357Z,78.41
2022-09-12T02:36:54.747Z,78.25
2022-09-12T02:39:21.898Z,77.49
2022-09-12T02:41:51.991Z,77.26
2022-09-12T02:44:19.955Z,78.17
2022-09-12T02:46:53.115Z,79.27
2022-09-12T02:49:20.227Z,79.49
2022-09-12T02:51:48.814Z,79.18
2022-09-12T02:54:18.085Z,80.09
2022-09-12T02:56:46.467Z,80.63
2022-09-12T02:59:18.905Z,79.16
2022-09-12T03:01:55.149Z,79.63
2022-09-12T03:04:53.856Z,80.18
2022-09-12T03:07:24.361Z,79.39
2022-09-12T03:10:29.500Z,79.42
2022-09-12T03:13:22.886Z,80.20
2022-09-12T03:16:07.953Z,79.83
2022-09-12T03:18:53.291Z,80.01
2022-09-12T03:21:20.391Z,79.85
2022-09-12T03:23:59.947Z,79.26
2022-09-12T03:26:35.485Z,80.23
2022-09-12T03:29:06.485Z,80.23
2022-09-12T03:31:33.792Z,80.00
2022-09-12T03:34:01.033Z,80.21
2022-09-12T03:36:30.676Z,80.04
2022-09-12T03:38:57.780Z,80.25
2022-09-12T03:41:24.912Z,80.03
2022-09-12T03:43:52.075Z,80.15
2022-09-12T03:46:19.135Z,80.21
2022-09-12T03:48:46.238Z,80.80
2022-09-12T03:51:13.346Z,80.29
2022-09-12T03:53:40.450Z,80.08
2022-09-12T03:56:13.620Z,79.91
2022-09-12T03:59:07.652Z,81.22
2022-09-12T04:01:35.071Z,81.88
2022-09-12T04:04:02.397Z,80.42
2022-09-12T04:06:29.885Z,80.48
2022-09-12T04:08:57.162Z,80.71
2022-09-12T04:11:24.344Z,79.88
2022-09-12T04:13:51.634Z,79.33
2022-09-12T04:16:19.174Z,80.24
2022-09-12T04:18:46.866Z,80.98
2022-09-12T04:21:16.796Z,80.86
2022-09-12T04:23:44.301Z,82.03
2022-09-12T04:26:11.907Z,81.84
2022-09-12T04:28:39.430Z,82.69
2022-09-12T04:31:18.170Z,82.39
2022-09-12T04:33:45.860Z,83.30
2022-09-12T04:36:16.774Z,83.45
2022-09-12T04:38:45.432Z,84.07
2022-09-12T04:41:12.538Z,84.63
2022-09-12T04:43:39.723Z,84.85
2022-09-12T04:46:08.984Z,85.07
2022-09-12T04:48:36.740Z,86.50
2022-09-12T04:51:14.885Z,84.83
2022-09-12T04:53:43.152Z,85.04
2022-09-12T04:56:11.620Z,85.58
2022-09-12T04:58:39.176Z,85.55
2022-09-12T05:01:11.645Z,86.71
2022-09-12T05:03:39.890Z,86.12
2022-09-12T05:06:09.923Z,87.19
2022-09-12T05:08:37.372Z,87.02
2022-09-12T05:11:07.654Z,85.12
2022-09-12T05:13:35.035Z,85.78
2022-09-12T05:16:04.777Z,84.51
2022-09-12T05:18:33.851Z,84.71
2022-09-12T05:21:02.496Z,83.91
2022-09-12T05:23:30.009Z,83.72
2022-09-12T05:25:59.095Z,83.24
2022-09-12T05:28:30.280Z,84.96
2022-09-12T05:31:05.143Z,84.50
2022-09-12T05:33:33.637Z,85.28
2022-09-12T05:36:01.487Z,84.54
2022-09-12T05:38:29.400Z,85.21
2022-09-12T05:41:07.751Z,85.71
2022-09-12T05:43:35.893Z,86.73
2022-09-12T05:46:05.038Z,84.10
2022-09-12T05:48:34.436Z,84.84
2022-09-12T05:51:09.379Z,84.55
2022-09-12T05:53:37.908Z,84.81
2022-09-12T05:56:04.999Z,84.40
2022-09-12T05:58:32.502Z,84.66
2022-09-12T06:01:19.377Z,85.22
2022-09-12T06:03:51.791Z,84.64
2022-09-12T06:06:21.703Z,84.34
2022-09-12T06:08:51.117Z,86.07
2022-09-12T06:11:21.154Z,84.38
2022-09-12T06:13:48.797Z,84.22
2022-09-12T06:16:18.154Z,85.16
2022-09-12T06:19:12.391Z,86.39
2022-09-12T06:21:40.069Z,86.46
2022-09-12T06:24:10.226Z,86.02
2022-09-12T06:26:38.005Z,86.70
2022-09-12T06:29:05.237Z,86.76
2022-09-12T06:31:37.656Z,86.72
2022-09-12T06:34:11.256Z,86.87
2022-09-12T06:36:41.416Z,86.49
2022-09-12T06:39:12.191Z,85.96
2022-09-12T06:41:43.491Z,84.76
2022-09-12T06:44:16.594Z,85.53
2022-09-12T06:46:44.555Z,86.30
2022-09-12T06:49:12.028Z,85.82
2022-09-12T06:51:39.480Z,86.02
2022-09-12T06:54:06.537Z,85.89
2022-09-12T06:56:34.232Z,85.68
2022-09-12T06:59:01.310Z,86.06
2022-09-12T07:01:31.237Z,85.32
2022-09-12T07:04:00.222Z,85.81
2022-09-12T07:06:32.408Z,84.94
2022-09-12T07:09:01.215Z,84.76
2022-09-12T07:11:34.618Z,84.11
2022-09-12T07:14:04.179Z,83.75
2022-09-12T07:16:31.555Z,85.13
2022-09-12T07:19:01.694Z,84.12
2022-09-12T07:21:29.950Z,83.52
2022-09-12T07:24:00.358Z,83.54
2022-09-12T07:26:29.410Z,81.62
2022-09-12T07:29:18.701Z,82.37
2022-09-12T07:31:45.734Z,81.36
2022-09-12T07:34:14.019Z,81.91
2022-09-12T07:36:41.142Z,81.88
2022-09-12T07:39:08.360Z,81.39
2022-09-12T07:41:35.411Z,80.80
2022-09-12T07:44:03.608Z,80.61
2022-09-12T07:46:31.514Z,81.41
2022-09-12T07:49:00.413Z,80.77
2022-09-12T07:51:30.367Z,81.08
2022-09-12T07:53:58.230Z,81.00
2022-09-12T07:56:30.178Z,81.76
2022-09-12T07:58:59.148Z,81.88
2022-09-12T08:01:26.872Z,82.41
2022-09-12T08:03:57.008Z,82.24
2022-09-12T08:06:25.925Z,81.22
2022-09-12T08:08:55.804Z,81.37
2022-09-12T08:11:24.321Z,81.16
2022-09-12T08:13:56.178Z,80.61
2022-09-12T08:16:31.326Z,80.79
2022-09-12T08:19:01.013Z,81.22
2022-09-12T08:21:30.759Z,81.01
2022-09-12T08:24:00.974Z,81.30
2022-09-12T08:26:29.110Z,80.81
2022-09-12T08:28:56.647Z,79.57
2022-09-12T08:31:25.555Z,81.90
2022-09-12T08:33:55.181Z,79.62
2022-09-12T08:36:25.787Z,81.03
2022-09-12T08:39:00.273Z,79.96
2022-09-12T08:41:45.547Z,80.10
2022-09-12T08:44:45.129Z,78.57
2022-09-12T08:47:31.608Z,79.65
2022-09-12T08:50:10.151Z,78.79
2022-09-12T08:52:52.188Z,78.75
2022-09-12T08:55:25.378Z,78.44
2022-09-12T08:57:52.842Z,77.94
2022-09-12T09:00:21.600Z,76.61
2022-09-12T09:03:00.701Z,76.80
2022-09-12T09:05:51.466Z,75.74
2022-09-12T09:08:38.827Z,74.93
2022-09-12T09:11:26.966Z,73.87
2022-09-12T09:14:40.548Z,72.08
2022-09-12T09:17:41.075Z,71.48
2022-09-12T09:20:30.227Z,70.81
2022-09-12T09:23:01.599Z,71.04
2022-09-12T09:26:15.259Z,70.48
2022-09-12T09:28:52.281Z,70.75
2022-09-12T09:31:24.390Z,70.57
2022-09-12T09:33:54.181Z,70.90
2022-09-12T09:36:22.619Z,69.41
2022-09-12T09:39:06.711Z,69.45
2022-09-12T09:41:53.038Z,69.05
2022-09-12T09:44:20.689Z,70.53
2022-09-12T09:46:54.332Z,69.40
2022-09-12T09:49:26.132Z,70.03
2022-09-12T09:51:55.660Z,68.77
2022-09-12T09:54:32.296Z,69.19
2022-09-12T09:56:59.377Z,67.55
2022-09-12T09:59:34.225Z,68.78
2022-09-12T10:02:21.829Z,68.72
2022-09-12T10:04:58.860Z,68.11
2022-09-12T10:07:27.234Z,68.43
2022-09-12T10:10:17.160Z,68.43
2022-09-12T10:12:44.670Z,66.86
2022-09-12T10:15:20.876Z,68.90
2022-09-12T10:17:50.239Z,67.49
2022-09-12T10:20:40.465Z,67.75
2022-09-12T10:23:19.869Z,68.03
2022-09-12T10:25:53.613Z,67.79
2022-09-12T10:28:46.389Z,68.40
2022-09-12T10:31:29.231Z,68.66
2022-09-12T10:34:00.149Z,67.45
2022-09-12T10:36:37.420Z,67.41
2022-09-12T10:39:05.487Z,66.86
2022-09-12T10:41:38.984Z,67.63
2022-09-12T10:44:08.174Z,66.28
2022-09-12T10:46:35.465Z,66.89
2022-09-12T10:49:21.610Z,66.42
2022-09-12T10:51:49.203Z,66.58
2022-09-12T10:54:21.562Z,66.49
2022-09-12T10:56:48.605Z,66.80
2022-09-12T10:59:24.387Z,65.21
2022-09-12T11:02:01.783Z,64.73
2022-09-12T11:04:46.210Z,65.42
2022-09-12T11:07:31.456Z,65.23
2022-09-12T11:10:17.233Z,64.38
2022-09-12T11:12:58.069Z,64.01
2022-09-12T11:15:43.104Z,63.52
2022-09-12T11:18:28.338Z,63.82
2022-09-12T11:21:26.011Z,63.31
2022-09-12T11:24:21.698Z,63.10
2022-09-12T11:26:52.054Z,62.94
2022-09-12T11:29:28.201Z,63.82
2022-09-12T11:32:23.522Z,62.74
2022-09-12T11:35:18.277Z,62.58
2022-09-12T11:38:00.480Z,61.85
2022-09-12T11:40:36.412Z,62.63
2022-09-12T11:43:43.963Z,62.66
2022-09-12T11:46:22.984Z,62.04
2022-09-12T11:49:14.489Z,62.19
2022-09-12T11:52:04.641Z,62.01
2022-09-12T11:55:05.962Z,61.42
2022-09-12T11:57:51.464Z,61.39
2022-09-12T12:00:21.126Z,61.66
2022-09-12T12:03:11.488Z,61.14
2022-09-12T12:05:55.730Z,61.53
2022-09-12T12:08:25.186Z,61.46
2022-09-12T12:11:04.230Z,60.99
2022-09-12T12:13:40.429Z,61.29
2022-09-12T12:16:15.913Z,61.97
2022-09-12T12:18:44.152Z,61.39
2022-09-12T12:21:26.706Z,61.39
2022-09-12T12:24:08.900Z,61.68
2022-09-12T12:26:39.559Z,61.43
2022-09-12T12:29:13.435Z,61.80
2022-09-12T12:32:19.306Z,61.56
2022-09-12T12:34:47.718Z,61.49
2022-09-12T12:37:21.065Z,60.78
2022-09-12T12:39:48.424Z,59.70
2022-09-12T12:42:34.407Z,59.99
2022-09-12T12:45:26.785Z,60.27
2022-09-12T12:47:59.404Z,60.38
2022-09-12T12:50:31.240Z,59.71
2022-09-12T12:53:03.717Z,59.74
2022-09-12T12:55:42.874Z,60.13
2022-09-12T12:58:33.308Z,59.44
2022-09-12T13:01:03.391Z,59.74
2022-09-12T13:03:34.177Z,60.53
2022-09-12T13:06:03.433Z,59.90
2022-09-12T13:08:33.189Z,60.10
2022-09-12T13:11:08.796Z,59.41
2022-09-12T13:13:47.712Z,59.19
2022-09-12T13:16:39.934Z,59.93
2022-09-12T13:19:27.395Z,60.10
2022-09-12T13:22:01.606Z,59.84
2022-09-12T13:24:28.908Z,60.37
2022-09-12T13:26:57.851Z,59.11
2022-09-12T13:29:26.999Z,59.56
2022-09-12T13:31:57.231Z,59.90
2022-09-12T13:34:31.905Z,60.37
2022-09-12T13:37:30.122Z,58.69
2022-09-12T13:40:31.886Z,59.03
2022-09-12T13:43:10.160Z,58.96
2022-09-12T13:45:42.041Z,59.16
2022-09-12T13:48:29.491Z,58.84
2022-09-12T13:51:02.721Z,58.85
2022-09-12T13:53:36.777Z,58.76
2022-09-12T13:56:03.898Z,58.62
2022-09-12T13:58:34.654Z,58.79
2022-09-12T14:01:12.286Z,58.63
2022-09-12T14:04:08.881Z,59.23
2022-09-12T14:06:50.218Z,59.00
2022-09-12T14:09:25.533Z,59.14
2022-09-12T14:11:53.810Z,59.23
2022-09-12T14:14:33.585Z,58.47
2022-09-12T14:17:01.123Z,58.25
2022-09-12T14:19:29.387Z,58.48
2022-09-12T14:21:57.823Z,58.07
2022-09-12T14:24:25.951Z,58.06
2022-09-12T14:26:57.020Z,57.69
2022-09-12T14:29:25.679Z,57.62
2022-09-12T14:32:04.919Z,57.13
2022-09-12T14:34:32.095Z,56.93
2022-09-12T14:36:59.585Z,56.93
2022-09-12T14:39:33.866Z,57.68
2022-09-12T14:42:05.383Z,58.00
2022-09-12T14:44:34.215Z,58.23
2022-09-12T14:47:13.374Z,57.95
2022-09-12T14:49:41.350Z,57.74
2022-09-12T14:52:21.647Z,57.70
2022-09-12T14:55:44.732Z,57.66
2022-09-12T14:58:21.314Z,57.71
2022-09-12T15:01:01.989Z,57.40
2022-09-12T15:03:31.500Z,57.11
2022-09-12T15:06:00.155Z,56.50
2022-09-12T15:08:27.340Z,57.19
2022-09-12T15:10:55.188Z,56.79
2022-09-12T15:13:26.062Z,57.23
2022-09-12T15:15:58.870Z,57.01
2022-09-12T15:18:28.238Z,56.67
2022-09-12T15:20:57.898Z,57.10
2022-09-12T15:23:49.609Z,57.25
2022-09-12T15:26:30.596Z,57.32
2022-09-12T15:28:58.136Z,56.31
2022-09-12T15:31:32.606Z,57.05
2022-09-12T15:34:01.598Z,56.99
2022-09-12T15:36:29.743Z,57.03
2022-09-12T15:38:57.880Z,56.95
2022-09-12T15:41:31.944Z,57.31
2022-09-12T15:43:59.270Z,56.65
2022-09-12T15:46:27.237Z,56.21
2022-09-12T15:48:54.731Z,56.30
2022-09-12T15:51:22.902Z,56.59
2022-09-12T15:53:51.373Z,56.73
2022-09-12T15:56:21.298Z,57.17
2022-09-12T15:58:58.714Z,57.13
2022-09-12T16:01:28.775Z,57.08
2022-09-12T16:03:56.365Z,57.73
2022-09-12T16:06:24.196Z,57.78
2022-09-12T16:08:51.531Z,57.96
2022-09-12T16:11:24.460Z,57.54
2022-09-12T16:13:56.953Z,57.63
2022-09-12T16:16:24.320Z,58.24
2022-09-12T16:18:51.843Z,58.37
2022-09-12T16:21:19.352Z,58.42
2022-09-12T16:23:48.260Z,58.33
2022-09-12T16:26:16.491Z,58.54
2022-09-12T16:28:44.369Z,58.38
2022-09-12T16:31:13.795Z,58.64
2022-09-12T16:33:41.473Z,58.60
2022-09-12T16:36:14.524Z,59.15
2022-09-12T16:38:52.956Z,59.23
2022-09-12T16:41:25.432Z,59.02
2022-09-12T16:43:53.375Z,59.40
2022-09-12T16:46:23.972Z,59.33
2022-09-12T16:48:57.841Z,58.65
2022-09-12T16:51:33.952Z,58.83
2022-09-12T16:54:01.726Z,58.44
2022-09-12T16:56:28.957Z,58.68
2022-09-12T16:58:56.316Z,58.68
2022-09-12T17:01:25.559Z,58.88
2022-09-12T17:03:54.884Z,57.89
2022-09-12T17:06:23.286Z,58.32
2022-09-12T17:08:52.580Z,57.87
2022-09-12T17:11:21.558Z,58.26
2022-09-12T17:14:04.347Z,58.23
2022-09-12T17:16:36.125Z,57.84
2022-09-12T17:19:07.258Z,58.68
2022-09-12T17:21:35.610Z,57.91
2022-09-12T17:24:05.140Z,57.46
2022-09-12T17:26:35.958Z,57.58
2022-09-12T17:29:03.925Z,57.70
2022-09-12T17:31:33.972Z,57.99
2022-09-12T17:34:02.115Z,57.53
2022-09-12T17:36:31.987Z,57.74
2022-09-12T17:39:00.307Z,57.49
2022-09-12T17:41:31.954Z,57.56
2022-09-12T17:44:00.729Z,57.75
2022-09-12T17:46:35.031Z,57.39
2022-09-12T17:49:05.474Z,57.30
2022-09-12T17:51:33.128Z,57.48
2022-09-12T17:54:12.180Z,57.45
2022-09-12T17:56:40.367Z,57.66
2022-09-12T17:59:10.854Z,57.60
2022-09-12T18:01:56.656Z,57.88
2022-09-12T18:04:24.296Z,57.83
2022-09-12T18:06:51.678Z,57.41
2022-09-12T18:09:24.953Z,58.00
2022-09-12T18:11:53.335Z,58.21
2022-09-12T18:14:24.864Z,57.94
2022-09-12T18:17:01.419Z,57.99
2022-09-12T18:19:29.145Z,57.75
2022-09-12T18:21:56.820Z,58.46
2022-09-12T18:24:24.658Z,58.40
2022-09-12T18:26:51.872Z,58.10
2022-09-12T18:29:20.156Z,58.18
2022-09-12T18:31:47.454Z,58.60
2022-09-12T18:34:16.230Z,58.79
2022-09-12T18:36:49.477Z,58.29
2022-09-12T18:39:18.012Z,58.19
2022-09-12T18:41:45.160Z,58.79
2022-09-12T18:44:12.713Z,58.89
2022-09-12T18:46:40.112Z,59.00
2022-09-12T18:49:07.902Z,58.58
2022-09-12T18:51:36.165Z,58.65
2022-09-12T18:54:06.502Z,59.59
2022-09-12T18:56:36.011Z,57.87
2022-09-12T18:59:05.442Z,58.29
2022-09-12T19:01:38.141Z,58.94
2022-09-12T19:04:07.696Z,58.37
2022-09-12T19:06:40.468Z,58.89
2022-09-12T19:09:09.235Z,58.28
2022-09-12T19:11:39.426Z,58.89
2022-09-12T19:14:07.735Z,58.46
2022-09-12T19:16:35.213Z,58.76
2022-09-12T19:19:03.144Z,59.23
2022-09-12T19:21:31.865Z,59.42
2022-09-12T19:24:01.792Z,59.53
2022-09-12T19:26:28.963Z,58.59
2022-09-12T19:28:57.104Z,58.99
2022-09-12T19:31:24.586Z,59.17
2022-09-12T19:33:55.054Z,60.07
2022-09-12T19:36:43.787Z,59.17
2022-09-12T19:39:10.313Z,59.56
2022-09-12T19:41:37.551Z,59.29
2022-09-12T19:44:05.182Z,59.66
2022-09-12T19:46:32.718Z,60.21
2022-09-12T19:49:00.091Z,60.28
2022-09-12T19:51:27.433Z,60.46
2022-09-12T19:53:54.766Z,60.56
2022-09-12T19:56:21.948Z,60.35
2022-09-12T19:58:55.816Z,60.28
2022-09-12T20:01:30.771Z,60.32
2022-09-12T20:03:58.997Z,60.05
2022-09-12T20:06:26.903Z,60.04
2022-09-12T20:08:54.709Z,60.05
2022-09-12T20:11:23.793Z,60.23
2022-09-12T20:13:51.586Z,60.56
2022-09-12T20:16:29.215Z,60.71
2022-09-12T20:18:59.907Z,60.31
2022-09-12T20:21:32.751Z,60.87
2022-09-12T20:24:04.327Z,60.74
2022-09-12T20:26:32.080Z,60.32
2022-09-12T20:29:00.339Z,60.26
2022-09-12T20:31:27.980Z,60.23
2022-09-12T20:33:55.324Z,60.81
2022-09-12T20:36:22.832Z,60.95
2022-09-12T20:38:52.981Z,60.98
2022-09-12T20:41:21.578Z,61.37
2022-09-12T20:43:56.818Z,61.05
2022-09-12T20:46:25.495Z,60.65
2022-09-12T20:48:52.943Z,60.84
2022-09-12T20:51:21.462Z,61.19
2022-09-12T20:53:52.306Z,61.04
2022-09-12T20:56:19.556Z,61.68
2022-09-12T20:58:46.851Z,61.71
2022-09-12T21:01:15.983Z,60.83
2022-09-12T21:03:44.485Z,61.61
2022-09-12T21:06:13.530Z,61.72
2022-09-12T21:08:41.851Z,61.09
2022-09-12T21:11:09.313Z,60.51
2022-09-12T21:13:37.416Z,60.97
2022-09-12T21:16:07.890Z,60.69
2022-09-12T21:18:35.583Z,60.79
2022-09-12T21:21:04.165Z,61.21
2022-09-12T21:23:31.904Z,60.81
2022-09-12T21:26:00.165Z,61.10
2022-09-12T21:28:28.133Z,60.84
2022-09-12T21:30:56.106Z,60.92
2022-09-12T21:33:23.913Z,60.54
2022-09-12T21:35:51.289Z,60.56
2022-09-12T21:38:19.973Z,61.02
2022-09-12T21:40:47.885Z,60.86
2022-09-12T21:43:15.386Z,61.39
2022-09-12T21:45:42.468Z,60.94
2022-09-12T21:48:09.581Z,60.83
2022-09-12T21:50:36.632Z,61.06
2022-09-12T21:53:03.926Z,60.79
2022-09-12T21:55:31.241Z,61.27
2022-09-12T21:57:58.427Z,61.95
2022-09-12T22:00:25.692Z,61.52
2022-09-12T22:02:53.817Z,61.50
2022-09-12T22:05:21.677Z,62.18
2022-09-12T22:07:48.741Z,61.85
2022-09-12T22:10:16.196Z,62.42
2022-09-12T22:12:46.049Z,62.32
2022-09-12T22:15:38.947Z,61.99
2022-09-12T22:18:01.265Z,62.35
2022-09-12T22:20:28.613Z,62.42
2022-09-12T22:23:14.196Z,62.00
2022-09-12T22:25:41.328Z,62.02
2022-09-12T22:28:08.400Z,62.80
2022-09-12T22:30:35.563Z,62.78
2022-09-12T22:33:02.627Z,63.38
2022-09-12T22:35:29.855Z,63.36
2022-09-12T22:37:56.938Z,62.47
2022-09-12T22:40:24.157Z,62.87
2022-09-12T22:42:52.812Z,62.51
2022-09-12T22:45:20.055Z,62.97
2022-09-12T22:47:47.399Z,63.01
2022-09-12T22:50:14.701Z,63.47
2022-09-12T22:52:41.775Z,62.99
2022-09-12T22:55:09.779Z,62.86
2022-09-12T22:57:37.855Z,63.14
2022-09-12T23:00:10.627Z,63.12
2022-09-12T23:02:38.223Z,63.56
2022-09-12T23:05:06.201Z,63.85
2022-09-12T23:07:33.739Z,63.38
2022-09-12T23:10:00.767Z,63.44
2022-09-12T23:12:27.921Z,63.38
2022-09-12T23:14:54.988Z,64.32
2022-09-12T23:17:22.058Z,64.04
2022-09-12T23:19:49.140Z,63.71
2022-09-12T23:22:16.251Z,63.97
2022-09-12T23:24:43.353Z,64.03
2022-09-12T23:27:10.625Z,63.60
2022-09-12T23:29:37.785Z,64.97
2022-09-12T23:32:05.061Z,64.82
2022-09-12T23:34:33.601Z,64.52
2022-09-12T23:37:00.701Z,65.48
2022-09-12T23:39:27.831Z,65.49
2022-09-12T23:41:55.630Z,65.34
2022-09-12T23:44:22.715Z,65.96
2022-09-12T23:46:49.772Z,65.31
2022-09-12T23:49:16.851Z,65.27
2022-09-12T23:51:44.830Z,65.21
2022-09-12T23:54:11.860Z,64.92
2022-09-12T23:56:39.062Z,65.73
2022-09-12T23:59:06.228Z,65.69
